createdAt,value
2023-03-31T00:00:30.610Z,11.25
2023-03-31T00:03:34.422Z,11.30
2023-03-31T00:06:38.690Z,11.30
2023-03-31T00:09:45.941Z,11.20
2023-03-31T00:12:48.346Z,11.14
2023-03-31T00:15:57.106Z,10.90
2023-03-31T00:19:02.039Z,11.26
2023-03-31T00:22:06.741Z,11.45
2023-03-31T00:25:12.136Z,11.45
2023-03-31T00:28:14.853Z,11.39
2023-03-31T00:31:18.787Z,11.50
2023-03-31T00:34:22.929Z,11.47
2023-03-31T00:37:25.274Z,11.54
2023-03-31T00:40:27.866Z,11.40
2023-03-31T00:43:39.392Z,11.56
2023-03-31T00:47:04.865Z,11.56
2023-03-31T00:50:18.792Z,11.53
2023-03-31T00:53:25.185Z,11.55
2023-03-31T00:56:34.210Z,11.52
2023-03-31T00:59:41.488Z,11.50
2023-03-31T01:02:52.370Z,11.51
2023-03-31T01:06:00.201Z,11.42
2023-03-31T01:09:06.780Z,11.59
2023-03-31T01:12:11.191Z,11.49
2023-03-31T01:15:14.600Z,11.63
2023-03-31T01:18:21.311Z,11.57
2023-03-31T01:21:42.705Z,11.57
2023-03-31T01:25:09.537Z,11.56
2023-03-31T01:28:38.698Z,11.53
2023-03-31T01:32:03.258Z,11.48
2023-03-31T01:35:11.293Z,11.52
2023-03-31T01:38:35.871Z,11.48
2023-03-31T01:41:58.245Z,11.44
2023-03-31T01:45:19.341Z,11.39
2023-03-31T01:48:35.221Z,11.36
2023-03-31T01:52:04.937Z,11.19
2023-03-31T01:55:20.926Z,11.32
2023-03-31T01:58:27.792Z,11.31
2023-03-31T02:01:47.776Z,11.29
2023-03-31T02:05:01.085Z,11.13
2023-03-31T02:08:14.972Z,11.24
2023-03-31T02:11:18.271Z,11.19
2023-03-31T02:14:24.893Z,11.10
2023-03-31T02:17:32.865Z,10.99
2023-03-31T02:20:35.770Z,11.08
2023-03-31T02:23:38.832Z,10.93
2023-03-31T02:26:59.846Z,10.91
2023-03-31T02:30:04.008Z,11.01
2023-03-31T02:33:07.150Z,10.96
2023-03-31T02:36:11.530Z,10.94
2023-03-31T02:39:20.188Z,10.91
2023-03-31T02:42:23.069Z,10.90
2023-03-31T02:45:49.546Z,10.84
2023-03-31T02:48:56.045Z,10.74
2023-03-31T02:52:19.887Z,10.87
2023-03-31T02:55:38.473Z,10.87
2023-03-31T02:58:46.989Z,10.85
2023-03-31T03:02:04.422Z,10.85
2023-03-31T03:05:22.804Z,10.85
2023-03-31T03:08:37.926Z,10.81
2023-03-31T03:11:48.121Z,10.66
2023-03-31T03:15:01.072Z,10.78
2023-03-31T03:18:06.546Z,10.72
2023-03-31T03:21:08.945Z,10.68
2023-03-31T03:24:11.779Z,10.48
2023-03-31T03:27:14.182Z,10.63
2023-03-31T03:30:17.040Z,10.45
2023-03-31T03:33:19.361Z,10.52
2023-03-31T03:36:23.261Z,10.44
2023-03-31T03:39:25.694Z,10.42
2023-03-31T03:42:28.279Z,10.50
2023-03-31T03:45:30.625Z,10.43
2023-03-31T03:48:33.381Z,10.46
2023-03-31T03:51:35.779Z,10.42
2023-03-31T03:54:38.397Z,10.55
2023-03-31T03:57:40.836Z,10.51
2023-03-31T04:00:45.206Z,10.53
2023-03-31T04:03:47.845Z,10.39
2023-03-31T04:06:50.302Z,10.53
2023-03-31T04:09:52.949Z,10.36
2023-03-31T04:12:55.540Z,10.44
2023-03-31T04:15:58.195Z,10.47
2023-03-31T04:19:03.835Z,10.41
2023-03-31T04:22:06.415Z,10.41
2023-03-31T04:25:17.834Z,10.31
2023-03-31T04:28:20.529Z,10.39
2023-03-31T04:31:25.618Z,9.98
2023-03-31T04:34:35.162Z,10.21
2023-03-31T04:37:38.872Z,10.18
2023-03-31T04:40:41.599Z,10.30
2023-03-31T04:43:44.243Z,10.22
2023-03-31T04:46:46.958Z,10.09
2023-03-31T04:49:49.438Z,10.07
2023-03-31T04:52:52.205Z,10.05
2023-03-31T04:55:54.608Z,10.06
2023-03-31T04:58:57.201Z,10.23
2023-03-31T05:01:59.602Z,10.09
2023-03-31T05:05:02.213Z,10.31
2023-03-31T05:08:04.825Z,10.33
2023-03-31T05:11:07.523Z,10.35
2023-03-31T05:14:09.952Z,10.37
2023-03-31T05:17:12.626Z,10.32
2023-03-31T05:20:14.917Z,10.44
2023-03-31T05:23:17.515Z,10.16
2023-03-31T05:26:20.055Z,10.49
2023-03-31T05:29:23.756Z,10.52
2023-03-31T05:32:27.481Z,10.58
2023-03-31T05:35:30.246Z,10.62
2023-03-31T05:38:34.627Z,10.67
2023-03-31T05:41:37.311Z,10.76
2023-03-31T05:44:39.619Z,10.83
2023-03-31T05:47:42.308Z,10.79
2023-03-31T05:50:44.937Z,10.97
2023-03-31T05:53:47.566Z,11.13
2023-03-31T05:56:49.901Z,11.24
2023-03-31T05:59:52.510Z,11.24
2023-03-31T06:02:54.950Z,11.50
2023-03-31T06:05:57.872Z,11.55
2023-03-31T06:09:00.928Z,11.60
2023-03-31T06:12:03.853Z,11.72
2023-03-31T06:15:06.756Z,11.93
2023-03-31T06:18:10.835Z,11.93
2023-03-31T06:21:15.192Z,12.17
2023-03-31T06:24:17.686Z,12.26
2023-03-31T06:27:19.961Z,12.34
2023-03-31T06:30:22.643Z,12.36
2023-03-31T06:33:24.980Z,12.60
2023-03-31T06:36:30.237Z,12.60
2023-03-31T06:39:32.955Z,12.86
2023-03-31T06:42:35.738Z,12.99
2023-03-31T06:45:38.153Z,12.96
2023-03-31T06:48:41.433Z,13.12
2023-03-31T06:51:43.862Z,13.40
2023-03-31T06:54:47.025Z,13.59
2023-03-31T06:57:49.426Z,13.72
2023-03-31T07:00:52.963Z,13.85
2023-03-31T07:03:55.400Z,13.99
2023-03-31T07:07:01.859Z,14.01
2023-03-31T07:10:04.730Z,14.31
2023-03-31T07:13:07.507Z,14.37
2023-03-31T07:16:10.992Z,14.53
2023-03-31T07:19:15.534Z,14.84
2023-03-31T07:22:18.075Z,14.53
2023-03-31T07:25:20.787Z,15.33
2023-03-31T07:28:23.208Z,15.59
2023-03-31T07:31:26.443Z,15.64
2023-03-31T07:34:28.926Z,15.79
2023-03-31T07:37:36.629Z,15.78
2023-03-31T07:40:39.940Z,15.98
2023-03-31T07:43:42.750Z,16.18
2023-03-31T07:46:45.106Z,16.43
2023-03-31T07:49:48.431Z,16.32
2023-03-31T07:52:51.569Z,16.57
2023-03-31T07:55:54.189Z,16.60
2023-03-31T07:58:57.929Z,16.17
2023-03-31T08:02:03.513Z,16.74
2023-03-31T08:05:07.424Z,16.95
2023-03-31T08:08:09.829Z,17.05
2023-03-31T08:11:12.509Z,17.08
2023-03-31T08:14:15.174Z,17.25
2023-03-31T08:17:18.049Z,17.33
2023-03-31T08:20:20.545Z,17.40
2023-03-31T08:23:23.241Z,17.66
2023-03-31T08:26:26.241Z,17.78
2023-03-31T08:29:34.308Z,18.01
2023-03-31T08:32:37.438Z,18.28
2023-03-31T08:35:41.174Z,18.26
2023-03-31T08:38:48.180Z,18.51
2023-03-31T08:42:07.592Z,18.22
2023-03-31T08:45:25.464Z,18.51
2023-03-31T08:48:36.843Z,18.34
2023-03-31T08:51:56.724Z,18.67
2023-03-31T08:55:04.731Z,19.18
2023-03-31T08:58:15.798Z,19.20
2023-03-31T09:01:47.712Z,19.07
2023-03-31T09:05:00.755Z,19.10
2023-03-31T09:08:35.817Z,19.13
2023-03-31T09:11:51.238Z,19.36
2023-03-31T09:15:34.979Z,19.52
2023-03-31T09:18:46.629Z,19.55
2023-03-31T09:21:53.388Z,19.26
2023-03-31T09:25:10.784Z,19.92
2023-03-31T09:28:29.150Z,20.23
2023-03-31T09:31:32.281Z,19.90
2023-03-31T09:34:36.494Z,19.97
2023-03-31T09:37:38.901Z,19.65
2023-03-31T09:40:42.838Z,19.91
2023-03-31T09:43:46.428Z,20.33
2023-03-31T09:46:50.407Z,20.43
2023-03-31T09:49:53.852Z,20.97
2023-03-31T09:52:59.908Z,21.22
2023-03-31T09:56:05.377Z,20.87
2023-03-31T09:59:15.806Z,21.31
2023-03-31T10:02:36.163Z,21.70
2023-03-31T10:05:48.553Z,21.98
2023-03-31T10:08:53.922Z,22.09
2023-03-31T10:12:17.902Z,22.11
2023-03-31T10:15:26.050Z,22.20
2023-03-31T10:18:44.680Z,22.06
2023-03-31T10:21:55.362Z,21.60
2023-03-31T10:25:17.446Z,21.34
2023-03-31T10:28:21.074Z,20.80
2023-03-31T10:31:33.999Z,20.34
2023-03-31T10:34:42.386Z,20.48
2023-03-31T10:37:48.218Z,20.10
2023-03-31T10:40:53.402Z,20.20
2023-03-31T10:43:58.198Z,19.93
2023-03-31T10:47:13.609Z,19.53
2023-03-31T10:50:17.081Z,19.05
2023-03-31T10:53:20.062Z,18.89
2023-03-31T10:56:35.004Z,19.21
2023-03-31T10:59:46.904Z,19.44
2023-03-31T11:03:12.706Z,19.57
2023-03-31T11:06:27.459Z,19.54
2023-03-31T11:10:01.648Z,20.10
2023-03-31T11:13:20.140Z,20.31
2023-03-31T11:16:40.771Z,20.28
2023-03-31T11:20:06.955Z,19.80
2023-03-31T11:23:38.600Z,19.54
2023-03-31T11:27:08.952Z,19.53
2023-03-31T11:34:10.141Z,19.26
2023-03-31T11:38:03.303Z,19.00
2023-03-31T11:41:11.983Z,18.78
2023-03-31T11:44:18.895Z,18.80
2023-03-31T11:47:27.676Z,18.66
2023-03-31T11:50:38.527Z,18.33
2023-03-31T11:53:43.553Z,18.31
2023-03-31T11:56:46.757Z,18.39
2023-03-31T11:59:56.672Z,18.17
2023-03-31T12:03:02.113Z,17.97
2023-03-31T12:06:19.518Z,18.08
2023-03-31T12:09:30.559Z,18.22
2023-03-31T12:12:42.169Z,18.33
2023-03-31T12:15:53.007Z,18.28
2023-03-31T12:19:09.049Z,18.36
2023-03-31T12:22:17.499Z,18.07
2023-03-31T12:25:26.689Z,18.31
2023-03-31T12:28:33.758Z,18.23
2023-03-31T12:31:40.421Z,18.50
2023-03-31T12:34:54.420Z,18.73
2023-03-31T12:38:16.881Z,18.41
2023-03-31T12:41:44.726Z,18.58
2023-03-31T12:44:50.342Z,18.64
2023-03-31T12:48:19.410Z,19.24
2023-03-31T12:51:56.537Z,19.47
2023-03-31T12:55:38.337Z,19.49
2023-03-31T12:58:43.725Z,19.43
2023-03-31T13:02:09.334Z,19.47
2023-03-31T13:05:36.899Z,19.41
2023-03-31T13:08:56.160Z,19.22
2023-03-31T13:11:59.136Z,18.98
2023-03-31T13:15:04.954Z,18.77
2023-03-31T13:18:08.371Z,18.81
2023-03-31T13:21:12.352Z,18.85
2023-03-31T13:24:15.654Z,18.84
2023-03-31T13:27:33.638Z,18.77
2023-03-31T13:30:36.658Z,18.85
2023-03-31T13:33:47.010Z,18.62
2023-03-31T13:37:04.436Z,18.69
2023-03-31T13:40:37.905Z,18.52
2023-03-31T13:43:48.710Z,18.67
2023-03-31T13:47:16.703Z,18.48
2023-03-31T13:50:38.109Z,18.44
2023-03-31T13:53:57.749Z,18.44
2023-03-31T13:57:33.451Z,18.32
2023-03-31T14:00:48.163Z,18.22
2023-03-31T14:03:56.932Z,18.11
2023-03-31T14:07:09.579Z,18.10
2023-03-31T14:10:27.697Z,18.02
2023-03-31T14:13:30.041Z,18.11
2023-03-31T14:16:37.566Z,18.02
2023-03-31T14:20:10.461Z,18.11
2023-03-31T14:23:25.057Z,18.05
2023-03-31T14:26:48.902Z,18.08
2023-03-31T14:30:27.328Z,18.06
2023-03-31T14:33:37.916Z,18.14
2023-03-31T14:36:46.831Z,18.34
2023-03-31T14:39:53.830Z,18.47
2023-03-31T14:42:56.563Z,18.51
2023-03-31T14:46:10.043Z,18.49
2023-03-31T14:49:54.183Z,18.58
2023-03-31T14:52:56.804Z,18.52
2023-03-31T14:56:11.810Z,18.39
2023-03-31T14:59:19.801Z,18.44
2023-03-31T15:02:34.397Z,18.26
2023-03-31T15:05:38.506Z,18.20
2023-03-31T15:08:42.154Z,17.95
2023-03-31T15:11:44.509Z,17.84
2023-03-31T15:14:51.104Z,17.80
2023-03-31T15:17:54.829Z,17.83
2023-03-31T15:20:57.624Z,17.67
2023-03-31T15:23:59.942Z,17.72
2023-03-31T15:27:23.454Z,17.69
2023-03-31T15:30:32.638Z,17.64
2023-03-31T15:33:41.355Z,17.32
2023-03-31T15:36:44.354Z,17.58
2023-03-31T15:39:49.189Z,17.30
2023-03-31T15:43:25.593Z,17.21
2023-03-31T15:46:50.466Z,17.18
2023-03-31T15:49:54.645Z,17.10
2023-03-31T15:53:03.897Z,16.95
2023-03-31T15:56:07.600Z,16.79
2023-03-31T15:59:54.580Z,16.76
2023-03-31T16:03:04.459Z,16.65
2023-03-31T16:06:41.663Z,16.39
2023-03-31T16:09:48.182Z,16.47
2023-03-31T16:13:06.315Z,16.40
2023-03-31T16:16:12.515Z,16.37
2023-03-31T16:19:16.325Z,16.22
2023-03-31T16:22:31.067Z,16.13
2023-03-31T16:25:40.729Z,16.18
2023-03-31T16:28:53.974Z,15.96
2023-03-31T16:32:18.362Z,15.86
2023-03-31T16:35:20.757Z,15.77
2023-03-31T16:38:27.968Z,15.81
2023-03-31T16:41:30.854Z,15.64
2023-03-31T16:44:33.455Z,15.69
2023-03-31T16:47:36.634Z,15.52
2023-03-31T16:50:40.762Z,15.58
2023-03-31T16:53:43.981Z,15.53
2023-03-31T16:56:47.940Z,15.46
2023-03-31T16:59:50.379Z,15.42
2023-03-31T17:02:53.262Z,15.44
2023-03-31T17:05:59.209Z,15.11
2023-03-31T17:09:02.223Z,15.35
2023-03-31T17:12:04.797Z,15.26
2023-03-31T17:15:08.376Z,15.06
2023-03-31T17:18:11.058Z,15.17
2023-03-31T17:21:15.624Z,14.99
2023-03-31T17:24:17.958Z,14.94
2023-03-31T17:27:20.635Z,14.95
2023-03-31T17:30:23.737Z,14.97
2023-03-31T17:33:27.863Z,14.79
2023-03-31T17:36:30.345Z,14.69
2023-03-31T17:39:33.140Z,14.66
2023-03-31T17:42:35.485Z,14.77
2023-03-31T17:45:38.309Z,14.68
2023-03-31T17:48:41.384Z,14.72
2023-03-31T17:51:44.259Z,14.61
2023-03-31T17:54:48.599Z,14.58
2023-03-31T17:57:52.157Z,14.71
2023-03-31T18:00:54.693Z,14.56
2023-03-31T18:03:58.368Z,14.54
2023-03-31T18:07:01.417Z,14.64
2023-03-31T18:10:07.729Z,14.55
2023-03-31T18:13:11.488Z,14.57
2023-03-31T18:16:14.277Z,14.61
2023-03-31T18:19:17.314Z,14.42
2023-03-31T18:22:19.961Z,14.41
2023-03-31T18:25:22.335Z,14.52
2023-03-31T18:28:24.915Z,14.44
2023-03-31T18:31:27.402Z,14.34
2023-03-31T18:34:32.611Z,14.42
2023-03-31T18:37:35.112Z,14.37
2023-03-31T18:40:37.808Z,14.41
2023-03-31T18:43:40.638Z,14.33
2023-03-31T18:46:44.377Z,14.29
2023-03-31T18:49:48.537Z,14.08
2023-03-31T18:52:52.433Z,14.19
2023-03-31T18:55:57.363Z,14.14
2023-03-31T18:59:00.129Z,14.10
2023-03-31T19:02:02.469Z,13.99
2023-03-31T19:05:05.745Z,13.97
2023-03-31T19:08:08.324Z,14.08
2023-03-31T19:11:16.126Z,13.99
2023-03-31T19:14:18.438Z,14.06
2023-03-31T19:17:21.419Z,14.06
2023-03-31T19:20:23.921Z,13.98
2023-03-31T19:23:26.613Z,13.94
2023-03-31T19:26:29.724Z,13.96
2023-03-31T19:29:32.776Z,13.93
2023-03-31T19:32:37.550Z,13.89
2023-03-31T19:35:45.565Z,13.83
2023-03-31T19:38:48.047Z,13.83
2023-03-31T19:41:50.717Z,13.62
2023-03-31T19:44:53.037Z,13.64
2023-03-31T19:47:56.099Z,13.59
2023-03-31T19:51:00.674Z,13.54
2023-03-31T19:54:04.932Z,13.47
2023-03-31T19:57:08.961Z,13.24
2023-03-31T20:00:12.532Z,13.38
2023-03-31T20:03:15.825Z,13.18
2023-03-31T20:06:23.861Z,13.21
2023-03-31T20:09:26.730Z,13.10
2023-03-31T20:12:29.229Z,12.88
2023-03-31T20:15:32.954Z,12.96
2023-03-31T20:18:37.272Z,12.91
2023-03-31T20:21:40.751Z,12.72
2023-03-31T20:24:43.238Z,12.76
2023-03-31T20:27:46.183Z,12.72
2023-03-31T20:30:49.217Z,12.68
2023-03-31T20:33:53.002Z,12.53
2023-03-31T20:36:56.453Z,12.66
2023-03-31T20:39:59.265Z,12.62
2023-03-31T20:43:01.609Z,12.44
2023-03-31T20:46:06.640Z,12.40
2023-03-31T20:49:09.464Z,12.35
2023-03-31T20:52:12.079Z,12.48
2023-03-31T20:55:15.211Z,12.47
2023-03-31T20:58:18.466Z,12.46
2023-03-31T21:01:22.003Z,12.30
2023-03-31T21:04:24.603Z,12.37
2023-03-31T21:07:26.888Z,12.38
2023-03-31T21:10:29.474Z,12.40
2023-03-31T21:13:32.196Z,12.39
2023-03-31T21:16:35.052Z,12.21
2023-03-31T21:19:37.425Z,12.37
2023-03-31T21:22:40.110Z,12.24
2023-03-31T21:25:45.526Z,12.35
2023-03-31T21:28:53.853Z,12.24
2023-03-31T21:31:56.322Z,12.20
2023-03-31T21:34:58.989Z,12.21
2023-03-31T21:38:02.943Z,12.03
2023-03-31T21:41:11.368Z,12.26
2023-03-31T21:44:13.774Z,12.24
2023-03-31T21:47:16.792Z,12.24
2023-03-31T21:50:19.123Z,12.14
2023-03-31T21:53:23.005Z,12.23
2023-03-31T21:56:27.765Z,12.26
2023-03-31T21:59:31.706Z,12.26
2023-03-31T22:02:34.022Z,12.26
2023-03-31T22:05:37.013Z,12.19
2023-03-31T22:08:39.956Z,12.05
2023-03-31T22:11:43.319Z,12.14
2023-03-31T22:14:45.695Z,11.89
2023-03-31T22:17:48.373Z,11.89
2023-03-31T22:20:51.522Z,11.95
2023-03-31T22:23:57.363Z,11.93
2023-03-31T22:26:59.644Z,12.04
2023-03-31T22:30:02.806Z,12.05
2023-03-31T22:33:05.667Z,12.02
2023-03-31T22:36:08.819Z,11.94
2023-03-31T22:39:11.284Z,11.96
2023-03-31T22:42:13.842Z,11.80
2023-03-31T22:45:16.441Z,11.77
2023-03-31T22:48:19.406Z,11.78
2023-03-31T22:51:21.701Z,11.95
2023-03-31T22:54:24.471Z,11.79
2023-03-31T22:57:27.677Z,11.97
2023-03-31T23:00:30.552Z,11.93
2023-03-31T23:03:33.152Z,11.90
2023-03-31T23:06:36.208Z,11.86
2023-03-31T23:09:38.756Z,11.75
2023-03-31T23:12:41.658Z,11.68
2023-03-31T23:15:44.059Z,11.79
2023-03-31T23:18:48.455Z,11.66
2023-03-31T23:21:51.442Z,11.81
2023-03-31T23:24:54.033Z,11.59
2023-03-31T23:27:56.341Z,11.53
2023-03-31T23:30:59.235Z,11.66
2023-03-31T23:34:01.756Z,11.49
2023-03-31T23:37:04.358Z,11.66
2023-03-31T23:40:07.534Z,11.62
2023-03-31T23:43:10.505Z,11.48
2023-03-31T23:46:13.589Z,11.47
2023-03-31T23:49:16.300Z,11.54
2023-03-31T23:52:18.640Z,11.52
2023-03-31T23:55:21.284Z,11.31
2023-03-31T23:58:24.896Z,11.18
